createdAt,value
2019-05-12T00:03:42.573Z,8.36
2019-05-12T00:08:48.843Z,8.17
2019-05-12T00:13:53.395Z,8.03
2019-05-12T00:18:59.284Z,7.94
2019-05-12T00:24:08.725Z,8.00
2019-05-12T00:29:13.177Z,7.77
2019-05-12T00:34:18.417Z,7.95
2019-05-12T00:39:24.115Z,7.88
2019-05-12T00:44:28.633Z,7.82
2019-05-12T00:49:32.998Z,7.86
2019-05-12T00:54:38.125Z,7.69
2019-05-12T00:59:42.465Z,7.49
2019-05-12T01:04:48.720Z,7.55
2019-05-12T01:09:52.943Z,7.76
2019-05-12T01:14:58.531Z,7.71
2019-05-12T01:20:02.974Z,7.74
2019-05-12T01:25:08.606Z,7.63
2019-05-12T01:30:13.646Z,7.68
2019-05-12T01:35:18.524Z,7.91
2019-05-12T01:40:23.062Z,8.14
2019-05-12T01:45:28.859Z,8.35
2019-05-12T01:50:33.449Z,7.92
2019-05-12T01:55:38.971Z,8.10
2019-05-12T02:00:45.431Z,8.19
2019-05-12T02:05:51.452Z,8.37
2019-05-12T02:11:00.134Z,8.47
2019-05-12T02:16:04.468Z,7.90
2019-05-12T02:21:08.822Z,8.23
2019-05-12T02:26:13.187Z,8.43
2019-05-12T02:31:20.788Z,8.68
2019-05-12T02:36:25.780Z,8.35
2019-05-12T02:41:29.659Z,8.34
2019-05-12T02:46:34.771Z,8.02
2019-05-12T02:51:39.642Z,8.56
2019-05-12T02:56:45.770Z,8.16
2019-05-12T03:01:55.021Z,8.12
2019-05-12T03:07:06.166Z,8.39
2019-05-12T03:12:08.486Z,8.22
2019-05-12T03:17:15.360Z,8.29
2019-05-12T03:22:18.942Z,8.47
2019-05-12T03:27:25.653Z,8.37
2019-05-12T03:32:29.369Z,8.36
2019-05-12T03:37:35.317Z,8.29
2019-05-12T03:42:39.850Z,8.47
2019-05-12T03:47:45.544Z,8.42
2019-05-12T03:52:50.205Z,8.33
2019-05-12T03:57:55.209Z,8.43
2019-05-12T04:02:59.711Z,8.58
2019-05-12T04:08:05.744Z,8.77
2019-05-12T04:13:10.705Z,8.67
2019-05-12T04:18:16.070Z,8.63
2019-05-12T04:23:20.873Z,8.43
2019-05-12T04:28:25.262Z,8.50
2019-05-12T04:33:29.577Z,8.48
2019-05-12T04:38:35.484Z,8.41
2019-05-12T04:43:40.090Z,8.65
2019-05-12T04:48:45.423Z,8.72
2019-05-12T04:53:49.993Z,8.54
2019-05-12T04:58:54.768Z,8.98
2019-05-12T05:03:59.149Z,8.74
2019-05-12T05:09:05.636Z,8.95
2019-05-12T05:14:09.981Z,8.90
2019-05-12T05:19:14.405Z,8.96
2019-05-12T05:24:18.773Z,8.96
2019-05-12T05:29:24.017Z,8.93
2019-05-12T05:34:28.492Z,9.34
2019-05-12T05:39:35.723Z,9.50
2019-05-12T05:44:39.938Z,9.59
2019-05-12T05:49:44.297Z,9.19
2019-05-12T05:54:48.681Z,9.30
2019-05-12T05:59:53.785Z,9.45
2019-05-12T06:04:58.347Z,9.51
2019-05-12T06:10:04.082Z,9.74
2019-05-12T06:15:09.121Z,9.53
2019-05-12T06:20:13.861Z,9.42
2019-05-12T06:25:18.255Z,9.61
2019-05-12T06:30:24.285Z,9.95
2019-05-12T06:35:30.997Z,9.57
2019-05-12T06:40:40.816Z,9.72
2019-05-12T06:45:43.291Z,10.22
2019-05-12T06:50:47.080Z,10.00
2019-05-12T06:55:53.861Z,10.10
2019-05-12T07:01:02.401Z,10.12
2019-05-12T07:06:04.153Z,10.18
2019-05-12T07:11:08.661Z,10.52
2019-05-12T07:16:16.658Z,10.72
2019-05-12T07:21:24.193Z,10.90
2019-05-12T07:26:26.722Z,11.23
2019-05-12T07:31:31.171Z,11.49
2019-05-12T07:36:35.578Z,11.36
2019-05-12T07:41:42.470Z,11.61
2019-05-12T07:46:49.443Z,11.05
2019-05-12T07:51:54.221Z,11.05
2019-05-12T07:57:03.514Z,11.66
2019-05-12T08:02:04.721Z,11.58
2019-05-12T08:07:09.511Z,10.97
2019-05-12T08:12:19.071Z,11.58
2019-05-12T08:17:19.968Z,11.90
2019-05-12T08:22:29.178Z,12.06
2019-05-12T08:27:30.505Z,11.50
2019-05-12T08:32:34.865Z,11.29
2019-05-12T08:37:39.237Z,11.75
2019-05-12T08:42:43.878Z,11.70
2019-05-12T08:47:48.232Z,11.92
2019-05-12T08:52:53.864Z,11.72
2019-05-12T08:57:58.323Z,11.83
2019-05-12T09:03:03.553Z,12.14
2019-05-12T09:08:08.120Z,11.67
2019-05-12T09:13:14.419Z,12.00
2019-05-12T09:18:19.141Z,12.58
2019-05-12T09:23:24.042Z,12.77
2019-05-12T09:28:42.898Z,12.50
2019-05-12T09:33:35.709Z,12.34
2019-05-12T09:38:41.098Z,12.33
2019-05-12T09:43:50.288Z,12.32
2019-05-12T09:48:52.954Z,12.61
2019-05-12T09:53:57.801Z,12.54
2019-05-12T09:59:16.665Z,12.97
2019-05-12T10:04:10.245Z,12.96
2019-05-12T10:09:19.425Z,12.47
2019-05-12T10:14:20.641Z,12.75
2019-05-12T10:19:26.095Z,13.41
2019-05-12T10:24:32.556Z,12.97
2019-05-12T10:29:36.570Z,12.58
2019-05-12T10:34:41.024Z,13.17
2019-05-12T10:39:45.415Z,13.07
2019-05-12T10:44:49.776Z,13.44
2019-05-12T10:49:54.161Z,12.57
2019-05-12T10:54:58.592Z,12.76
2019-05-12T11:00:04.605Z,12.95
2019-05-12T11:05:12.533Z,13.06
2019-05-12T11:10:20.027Z,13.20
2019-05-12T11:15:25.369Z,13.44
2019-05-12T11:20:29.962Z,13.24
2019-05-12T11:25:34.338Z,13.11
2019-05-12T11:30:38.694Z,13.41
2019-05-12T11:35:43.605Z,13.98
2019-05-12T11:40:48.080Z,13.71
2019-05-12T11:45:53.459Z,13.78
2019-05-12T11:50:58.182Z,14.16
2019-05-12T11:56:07.680Z,13.59
2019-05-12T12:01:10.304Z,13.87
2019-05-12T12:06:14.630Z,14.29
2019-05-12T12:11:24.759Z,13.70
2019-05-12T12:16:25.024Z,13.52
2019-05-12T12:21:32.022Z,13.63
2019-05-12T12:26:37.286Z,14.11
2019-05-12T12:31:52.116Z,14.05
2019-05-12T12:36:56.487Z,13.84
2019-05-12T12:42:04.373Z,13.61
2019-05-12T12:47:08.572Z,14.12
2019-05-12T12:52:13.785Z,14.39
2019-05-12T12:57:19.228Z,14.44
2019-05-12T13:02:24.734Z,14.41
2019-05-12T13:07:30.426Z,14.23
2019-05-12T13:12:35.857Z,14.32
2019-05-12T13:17:41.904Z,13.99
2019-05-12T13:22:46.437Z,14.20
2019-05-12T13:27:50.826Z,14.52
2019-05-12T13:32:55.207Z,14.67
2019-05-12T13:38:00.567Z,14.43
2019-05-12T13:43:09.191Z,14.44
2019-05-12T13:48:15.767Z,14.72
2019-05-12T13:53:18.775Z,14.57
2019-05-12T13:58:28.222Z,14.48
2019-05-12T14:03:33.705Z,14.40
2019-05-12T14:08:44.595Z,14.48
2019-05-12T14:13:52.421Z,14.77
2019-05-12T14:19:00.288Z,14.60
2019-05-12T14:24:05.002Z,14.49
2019-05-12T14:29:09.349Z,14.96
2019-05-12T14:34:19.282Z,14.48
2019-05-12T14:39:19.889Z,14.66
2019-05-12T14:44:24.395Z,14.76
2019-05-12T14:49:30.468Z,14.94
2019-05-12T14:54:35.140Z,15.09
2019-05-12T14:59:41.240Z,14.91
2019-05-12T15:04:45.799Z,14.97
2019-05-12T15:09:53.915Z,14.67
2019-05-12T15:14:57.144Z,14.61
2019-05-12T15:20:06.646Z,14.74
2019-05-12T15:25:07.681Z,14.83
2019-05-12T15:30:20.191Z,15.01
2019-05-12T15:35:18.676Z,14.92
2019-05-12T15:40:23.657Z,14.83
2019-05-12T15:45:28.334Z,14.72
2019-05-12T15:50:34.183Z,14.75
2019-05-12T15:55:38.745Z,15.04
2019-05-12T16:00:43.802Z,15.25
2019-05-12T16:05:48.348Z,15.14
2019-05-12T16:10:53.626Z,14.99
2019-05-12T16:16:03.551Z,14.92
2019-05-12T16:21:09.212Z,14.91
2019-05-12T16:26:14.670Z,14.99
2019-05-12T16:31:18.111Z,15.02
2019-05-12T16:36:22.458Z,14.84
2019-05-12T16:41:29.817Z,14.89
2019-05-12T16:46:33.957Z,15.01
2019-05-12T16:51:39.132Z,14.90
2019-05-12T16:56:43.490Z,14.70
2019-05-12T17:01:47.916Z,14.72
2019-05-12T17:06:52.273Z,14.67
2019-05-12T17:11:56.673Z,14.86
2019-05-12T17:17:01.021Z,15.01
2019-05-12T17:22:05.397Z,14.66
2019-05-12T17:27:15.869Z,14.65
2019-05-12T17:32:17.334Z,14.56
2019-05-12T17:37:36.345Z,14.72
2019-05-12T17:42:38.509Z,14.50
2019-05-12T17:47:44.857Z,14.25
2019-05-12T17:52:56.885Z,14.26
2019-05-12T17:58:03.670Z,14.16
2019-05-12T18:03:25.990Z,14.01
2019-05-12T18:08:38.144Z,14.02
2019-05-12T18:13:40.245Z,13.99
2019-05-12T18:18:45.934Z,13.87
2019-05-12T18:23:50.409Z,13.85
2019-05-12T18:28:59.177Z,13.78
2019-05-12T18:34:04.989Z,13.73
2019-05-12T18:39:11.860Z,13.74
2019-05-12T18:44:25.396Z,13.58
2019-05-12T18:49:23.883Z,13.61
2019-05-12T18:54:27.777Z,13.51
2019-05-12T18:59:34.003Z,13.46
2019-05-12T19:04:39.839Z,13.46
2019-05-12T19:09:47.108Z,13.36
2019-05-12T19:14:52.571Z,13.28
2019-05-12T19:19:59.934Z,13.20
2019-05-12T19:25:04.012Z,13.23
2019-05-12T19:30:08.767Z,13.13
2019-05-12T19:35:20.033Z,13.09
2019-05-12T19:40:21.242Z,13.10
2019-05-12T19:45:25.604Z,12.98
2019-05-12T19:50:30.010Z,12.88
2019-05-12T19:55:34.478Z,12.86
2019-05-12T20:00:38.865Z,12.86
2019-05-12T20:05:43.477Z,12.76
2019-05-12T20:10:49.731Z,12.75
2019-05-12T20:15:54.499Z,12.69
2019-05-12T20:20:58.924Z,12.62
2019-05-12T20:26:04.015Z,12.64
2019-05-12T20:31:08.704Z,12.60
2019-05-12T20:36:14.250Z,12.58
2019-05-12T20:41:23.476Z,12.60
2019-05-12T20:46:29.336Z,12.55
2019-05-12T20:51:35.495Z,12.54
2019-05-12T20:56:43.488Z,12.53
2019-05-12T21:01:50.341Z,12.42
2019-05-12T21:06:57.265Z,12.36
2019-05-12T21:12:01.639Z,12.39
2019-05-12T21:17:15.797Z,12.36
2019-05-12T21:22:17.444Z,12.30
2019-05-12T21:27:22.951Z,12.31
2019-05-12T21:32:28.877Z,12.31
2019-05-12T21:37:37.025Z,12.24
2019-05-12T21:42:39.532Z,12.18
2019-05-12T21:47:44.570Z,12.12
2019-05-12T21:52:49.001Z,12.12
2019-05-12T21:57:53.831Z,12.10
2019-05-12T22:03:02.667Z,12.02
2019-05-12T22:08:06.776Z,12.07
2019-05-12T22:13:17.590Z,12.00
2019-05-12T22:18:18.379Z,11.83
2019-05-12T22:23:24.750Z,12.04
2019-05-12T22:28:28.794Z,11.76
2019-05-12T22:33:33.489Z,11.84
2019-05-12T22:38:38.147Z,11.80
2019-05-12T22:43:45.671Z,11.69
2019-05-12T22:48:48.624Z,11.79
2019-05-12T22:53:53.906Z,11.64
2019-05-12T22:58:59.998Z,11.72
2019-05-12T23:04:04.474Z,11.72
2019-05-12T23:09:08.828Z,11.78
2019-05-12T23:14:20.531Z,11.54
2019-05-12T23:19:19.406Z,11.67
2019-05-12T23:24:23.865Z,11.38
2019-05-12T23:29:31.000Z,11.26
2019-05-12T23:34:34.377Z,11.16
2019-05-12T23:39:39.906Z,11.04
2019-05-12T23:44:44.431Z,11.19
2019-05-12T23:49:48.789Z,11.01
2019-05-12T23:54:54.223Z,11.02
2019-05-12T23:59:58.696Z,11.02
